createdAt,value
2022-10-18T00:00:22.670Z,2.88
2022-10-18T00:02:50.062Z,3.20
2022-10-18T00:05:17.577Z,3.22
2022-10-18T00:07:44.819Z,3.90
2022-10-18T00:10:13.579Z,2.70
2022-10-18T00:12:40.912Z,2.92
2022-10-18T00:15:09.649Z,3.13
2022-10-18T00:17:38.035Z,3.17
2022-10-18T00:20:07.184Z,3.40
2022-10-18T00:22:35.477Z,4.03
2022-10-18T00:25:02.811Z,3.35
2022-10-18T00:27:32.487Z,2.95
2022-10-18T00:30:00.088Z,3.50
2022-10-18T00:32:27.942Z,3.28
2022-10-18T00:34:55.291Z,3.85
2022-10-18T00:37:22.696Z,3.95
2022-10-18T00:39:50.227Z,2.97
2022-10-18T00:42:18.771Z,4.00
2022-10-18T00:45:15.324Z,3.75
2022-10-18T00:47:44.931Z,3.75
2022-10-18T00:50:12.588Z,4.32
2022-10-18T00:52:43.964Z,3.10
2022-10-18T00:55:11.966Z,3.72
2022-10-18T00:57:42.111Z,1.38
2022-10-18T01:00:10.708Z,3.38
2022-10-18T01:02:42.623Z,1.50
2022-10-18T01:05:11.730Z,3.92
2022-10-18T01:08:04.642Z,2.90
2022-10-18T01:10:41.038Z,3.10
2022-10-18T01:13:24.860Z,3.22
2022-10-18T01:15:59.576Z,3.08
2022-10-18T01:18:35.728Z,2.28
2022-10-18T01:21:17.290Z,3.00
2022-10-18T01:24:20.582Z,3.75
2022-10-18T01:27:10.253Z,2.80
2022-10-18T01:29:51.497Z,1.20
2022-10-18T01:32:23.132Z,1.35
2022-10-18T01:34:53.008Z,1.95
2022-10-18T01:37:22.615Z,3.30
2022-10-18T01:39:54.009Z,3.10
2022-10-18T01:42:21.545Z,3.05
2022-10-18T01:44:52.150Z,2.00
2022-10-18T01:47:22.155Z,3.55
2022-10-18T01:49:49.426Z,3.40
2022-10-18T01:52:16.946Z,3.60
2022-10-18T01:54:49.225Z,3.25
2022-10-18T01:57:24.031Z,3.60
2022-10-18T01:59:59.456Z,3.63
2022-10-18T02:02:43.300Z,3.33
2022-10-18T02:05:19.268Z,3.15
2022-10-18T02:08:00.319Z,3.42
2022-10-18T02:10:43.691Z,2.90
2022-10-18T02:13:13.415Z,2.72
2022-10-18T02:15:46.367Z,3.75
2022-10-18T02:18:19.449Z,2.75
2022-10-18T02:20:48.933Z,0.95
2022-10-18T02:23:21.335Z,1.15
2022-10-18T02:25:48.930Z,0.95
2022-10-18T02:28:16.383Z,3.63
2022-10-18T02:30:51.637Z,3.72
2022-10-18T02:33:27.778Z,3.35
2022-10-18T02:36:00.143Z,3.38
2022-10-18T02:38:29.128Z,3.38
2022-10-18T02:40:56.453Z,2.83
2022-10-18T02:43:24.637Z,3.28
2022-10-18T02:45:52.073Z,2.45
2022-10-18T02:48:20.835Z,3.72
2022-10-18T02:50:48.029Z,2.60
2022-10-18T02:53:15.272Z,2.53
2022-10-18T02:55:42.493Z,3.40
2022-10-18T02:58:09.666Z,3.50
2022-10-18T03:00:36.935Z,2.97
2022-10-18T03:03:04.427Z,2.78
2022-10-18T03:05:33.101Z,3.80
2022-10-18T03:08:00.320Z,0.95
2022-10-18T03:10:27.587Z,2.63
2022-10-18T03:12:54.835Z,3.33
2022-10-18T03:15:22.099Z,3.92
2022-10-18T03:17:49.441Z,3.47
2022-10-18T03:20:16.822Z,3.22
2022-10-18T03:22:45.415Z,2.35
2022-10-18T03:25:12.932Z,1.73
2022-10-18T03:27:40.232Z,3.45
2022-10-18T03:30:09.669Z,3.22
2022-10-18T03:32:36.993Z,2.55
2022-10-18T03:35:04.629Z,3.47
2022-10-18T03:37:32.074Z,2.25
2022-10-18T03:40:01.100Z,2.92
2022-10-18T03:42:28.493Z,3.47
2022-10-18T03:44:55.854Z,4.07
2022-10-18T03:47:23.111Z,3.03
2022-10-18T03:49:53.213Z,4.22
2022-10-18T03:52:23.544Z,2.53
2022-10-18T03:54:50.883Z,3.67
2022-10-18T03:57:19.820Z,3.80
2022-10-18T03:59:48.844Z,3.75
2022-10-18T04:02:16.190Z,3.28
2022-10-18T04:04:43.637Z,3.67
2022-10-18T04:07:10.882Z,3.25
2022-10-18T04:09:38.024Z,2.70
2022-10-18T04:12:05.681Z,3.25
2022-10-18T04:14:34.401Z,2.42
2022-10-18T04:17:01.708Z,3.70
2022-10-18T04:19:28.929Z,4.43
2022-10-18T04:21:56.466Z,4.05
2022-10-18T04:24:23.996Z,3.40
2022-10-18T04:26:51.179Z,2.45
2022-10-18T04:29:18.349Z,2.28
2022-10-18T04:31:46.973Z,3.97
2022-10-18T04:34:14.422Z,5.18
2022-10-18T04:36:41.712Z,3.22
2022-10-18T04:39:08.991Z,2.30
2022-10-18T04:41:36.504Z,2.60
2022-10-18T04:44:03.935Z,5.70
2022-10-18T04:46:31.261Z,1.98
2022-10-18T04:49:01.667Z,3.63
2022-10-18T04:51:29.174Z,2.42
2022-10-18T04:53:56.713Z,3.40
2022-10-18T04:56:24.007Z,3.72
2022-10-18T04:58:51.431Z,2.30
2022-10-18T05:01:19.105Z,5.53
2022-10-18T05:03:46.608Z,3.17
2022-10-18T05:06:15.354Z,5.20
2022-10-18T05:08:42.594Z,6.60
2022-10-18T05:13:43.341Z,2.13
2022-10-18T05:16:11.678Z,3.78
2022-10-18T05:18:38.892Z,4.68
2022-10-18T05:21:06.310Z,6.07
2022-10-18T05:23:34.938Z,3.95
2022-10-18T05:26:03.936Z,3.08
2022-10-18T05:28:39.127Z,3.33
2022-10-18T05:31:08.793Z,4.07
2022-10-18T05:33:36.310Z,4.97
2022-10-18T05:36:03.831Z,4.18
2022-10-18T05:38:31.502Z,5.65
2022-10-18T05:41:03.836Z,5.05
2022-10-18T05:43:31.120Z,4.63
2022-10-18T05:45:58.339Z,1.13
2022-10-18T05:48:25.657Z,3.67
2022-10-18T05:50:52.922Z,2.97
2022-10-18T05:53:37.244Z,3.05
2022-10-18T05:56:07.610Z,6.43
2022-10-18T05:58:35.158Z,0.68
2022-10-18T06:01:04.888Z,3.90
2022-10-18T06:03:32.919Z,5.20
2022-10-18T06:06:00.885Z,3.33
2022-10-18T06:08:28.623Z,3.17
2022-10-18T06:10:56.045Z,3.20
2022-10-18T06:13:25.123Z,3.78
2022-10-18T06:15:56.369Z,4.47
2022-10-18T06:18:23.918Z,5.05
2022-10-18T06:20:56.888Z,5.68
2022-10-18T06:23:24.275Z,2.05
2022-10-18T06:25:51.598Z,3.42
2022-10-18T06:28:18.822Z,5.13
2022-10-18T06:30:47.462Z,4.38
2022-10-18T06:33:14.733Z,3.88
2022-10-18T06:35:41.963Z,1.83
2022-10-18T06:38:09.219Z,2.95
2022-10-18T06:40:38.253Z,4.78
2022-10-18T06:43:20.625Z,6.30
2022-10-18T06:45:49.791Z,6.13
2022-10-18T06:48:17.805Z,3.42
2022-10-18T06:50:51.745Z,4.60
2022-10-18T06:53:18.892Z,4.55
2022-10-18T06:55:46.984Z,4.35
2022-10-18T06:58:14.192Z,5.18
2022-10-18T07:00:41.560Z,4.53
2022-10-18T07:03:10.213Z,1.50
2022-10-18T07:05:37.947Z,4.57
2022-10-18T07:08:05.360Z,5.85
2022-10-18T07:10:32.556Z,5.95
2022-10-18T07:13:20.025Z,5.28
2022-10-18T07:15:47.039Z,5.53
2022-10-18T07:18:15.830Z,6.93
2022-10-18T07:20:43.146Z,5.40
2022-10-18T07:23:11.787Z,6.68
2022-10-18T07:25:39.036Z,4.93
2022-10-18T07:28:06.495Z,6.30
2022-10-18T07:30:34.314Z,5.93
2022-10-18T07:33:01.612Z,7.53
2022-10-18T07:35:30.296Z,5.35
2022-10-18T07:37:57.634Z,6.43
2022-10-18T07:40:24.975Z,5.00
2022-10-18T07:42:52.468Z,7.15
2022-10-18T07:45:19.853Z,5.95
2022-10-18T07:47:47.047Z,6.38
2022-10-18T07:50:14.398Z,6.47
2022-10-18T07:52:43.144Z,5.68
2022-10-18T07:55:10.392Z,6.00
2022-10-18T07:57:37.669Z,6.68
2022-10-18T08:00:05.947Z,6.30
2022-10-18T08:02:38.952Z,5.68
2022-10-18T08:05:06.868Z,3.67
2022-10-18T08:07:34.575Z,6.03
2022-10-18T08:10:04.102Z,5.65
2022-10-18T08:12:31.589Z,5.68
2022-10-18T08:14:58.891Z,7.70
2022-10-18T08:17:26.131Z,7.90
2022-10-18T08:20:11.259Z,3.90
2022-10-18T08:22:39.200Z,5.03
2022-10-18T08:25:08.409Z,6.90
2022-10-18T08:27:35.720Z,6.07
2022-10-18T08:30:03.492Z,4.70
2022-10-18T08:32:31.621Z,6.68
2022-10-18T08:34:59.095Z,8.43
2022-10-18T08:37:26.725Z,7.20
2022-10-18T08:39:53.911Z,2.67
2022-10-18T08:42:43.929Z,7.57
2022-10-18T08:45:29.736Z,6.07
2022-10-18T08:48:00.145Z,7.40
2022-10-18T08:50:35.491Z,6.57
2022-10-18T08:53:13.486Z,6.30
2022-10-18T08:55:45.375Z,4.75
2022-10-18T08:58:21.930Z,3.80
2022-10-18T09:00:59.310Z,3.55
2022-10-18T09:03:39.559Z,4.70
2022-10-18T09:06:19.833Z,6.43
2022-10-18T09:09:02.550Z,3.25
2022-10-18T09:11:47.404Z,4.32
2022-10-18T09:14:48.267Z,7.45
2022-10-18T09:17:25.354Z,4.55
2022-10-18T09:20:04.035Z,5.13
2022-10-18T09:22:45.518Z,3.30
2022-10-18T09:25:18.631Z,3.20
2022-10-18T09:27:52.444Z,2.22
2022-10-18T09:30:36.386Z,6.13
2022-10-18T09:33:19.728Z,3.65
2022-10-18T09:35:53.087Z,4.00
2022-10-18T09:40:56.714Z,5.93
2022-10-18T09:43:26.630Z,4.38
2022-10-18T09:45:56.976Z,2.42
2022-10-18T09:48:29.369Z,1.83
2022-10-18T09:53:35.393Z,2.17
2022-10-18T09:56:06.116Z,2.60
2022-10-18T09:58:42.835Z,2.75
2022-10-18T10:01:14.560Z,2.65
2022-10-18T10:03:42.589Z,1.95
2022-10-18T10:06:25.690Z,4.22
2022-10-18T10:09:01.361Z,1.45
2022-10-18T10:11:31.937Z,3.67
2022-10-18T10:14:09.011Z,2.42
2022-10-18T10:16:47.304Z,3.42
2022-10-18T10:19:20.331Z,3.15
2022-10-18T10:21:50.497Z,2.10
2022-10-18T10:24:26.197Z,5.05
2022-10-18T10:27:01.757Z,3.38
2022-10-18T10:29:51.553Z,2.10
2022-10-18T10:32:22.064Z,2.58
2022-10-18T10:34:50.013Z,3.83
2022-10-18T10:37:35.125Z,6.05
2022-10-18T10:40:20.431Z,2.92
2022-10-18T10:43:04.404Z,5.63
2022-10-18T10:45:55.433Z,5.03
2022-10-18T10:48:27.831Z,5.13
2022-10-18T10:51:03.444Z,6.20
2022-10-18T10:53:41.182Z,6.10
2022-10-18T10:56:18.685Z,4.90
2022-10-18T10:58:46.559Z,4.90
2022-10-18T11:01:26.097Z,7.82
2022-10-18T11:03:57.182Z,2.88
2022-10-18T11:06:45.122Z,7.50
2022-10-18T11:09:44.195Z,8.38
2022-10-18T11:12:23.356Z,6.95
2022-10-18T11:14:58.151Z,2.60
2022-10-18T11:17:33.018Z,6.97
2022-10-18T11:20:14.248Z,3.75
2022-10-18T11:22:45.272Z,7.38
2022-10-18T11:25:15.537Z,3.15
2022-10-18T11:27:52.815Z,3.25
2022-10-18T11:30:48.771Z,6.32
2022-10-18T11:33:44.060Z,5.30
2022-10-18T11:36:20.965Z,4.63
2022-10-18T11:38:56.429Z,4.65
2022-10-18T11:41:31.972Z,4.53
2022-10-18T11:44:03.408Z,6.30
2022-10-18T11:46:50.196Z,4.55
2022-10-18T11:49:36.041Z,6.00
2022-10-18T11:52:13.784Z,5.88
2022-10-18T11:54:58.289Z,6.13
2022-10-18T11:57:44.524Z,6.65
2022-10-18T12:00:23.839Z,4.57
2022-10-18T12:03:15.799Z,3.95
2022-10-18T12:05:46.255Z,8.18
2022-10-18T12:08:18.444Z,6.95
2022-10-18T12:13:36.978Z,5.95
2022-10-18T12:16:07.097Z,6.45
2022-10-18T12:18:36.710Z,4.22
2022-10-18T12:21:06.602Z,4.35
2022-10-18T12:23:45.857Z,5.68
2022-10-18T12:26:14.108Z,5.20
2022-10-18T12:28:54.661Z,4.00
2022-10-18T12:31:26.299Z,3.72
2022-10-18T12:33:57.025Z,6.00
2022-10-18T12:36:55.730Z,4.88
2022-10-18T12:39:37.664Z,5.18
2022-10-18T12:42:20.337Z,5.88
2022-10-18T12:44:48.769Z,1.42
2022-10-18T12:47:23.547Z,3.03
2022-10-18T12:49:57.936Z,4.20
2022-10-18T12:52:28.251Z,4.50
2022-10-18T12:55:27.368Z,3.05
2022-10-18T12:58:26.068Z,4.40
2022-10-18T13:04:00.053Z,1.92
2022-10-18T13:07:05.585Z,5.35
2022-10-18T13:09:37.499Z,2.22
2022-10-18T13:12:38.007Z,5.32
2022-10-18T13:15:27.778Z,5.00
2022-10-18T13:18:01.082Z,4.18
2022-10-18T13:20:37.776Z,3.97
2022-10-18T13:23:19.184Z,2.78
2022-10-18T13:25:59.821Z,2.60
2022-10-18T13:28:34.722Z,3.30
2022-10-18T13:31:16.237Z,4.93
2022-10-18T13:33:43.829Z,5.78
2022-10-18T13:36:23.575Z,4.18
2022-10-18T13:39:18.740Z,5.25
2022-10-18T13:42:28.376Z,5.63
2022-10-18T13:45:15.681Z,3.95
2022-10-18T13:47:44.410Z,3.25
2022-10-18T13:50:30.821Z,6.07
2022-10-18T13:53:22.699Z,5.13
2022-10-18T13:56:03.655Z,4.78
2022-10-18T13:58:48.855Z,3.28
2022-10-18T14:01:33.368Z,3.90
2022-10-18T14:04:34.225Z,3.10
2022-10-18T14:07:05.009Z,4.50
2022-10-18T14:09:44.513Z,5.28
2022-10-18T14:12:21.761Z,5.22
2022-10-18T14:14:54.635Z,5.43
2022-10-18T14:17:30.533Z,4.78
2022-10-18T14:20:05.182Z,5.00
2022-10-18T14:22:40.872Z,3.30
2022-10-18T14:25:21.876Z,3.80
2022-10-18T14:27:52.340Z,2.08
2022-10-18T14:30:22.602Z,2.53
2022-10-18T14:32:52.327Z,2.30
2022-10-18T14:35:38.922Z,1.50
2022-10-18T14:38:13.745Z,1.50
2022-10-18T14:40:41.499Z,1.25
2022-10-18T14:43:12.505Z,1.08
2022-10-18T14:45:40.812Z,1.58
2022-10-18T14:48:15.188Z,0.90
2022-10-18T14:50:47.579Z,1.00
2022-10-18T14:53:18.923Z,0.70
2022-10-18T14:55:53.838Z,0.70
2022-10-18T14:58:21.399Z,0.93
2022-10-18T15:00:48.806Z,0.73
2022-10-18T15:03:18.141Z,0.70
2022-10-18T15:05:55.248Z,0.80
2022-10-18T15:08:24.753Z,1.30
2022-10-18T15:10:52.588Z,1.00
2022-10-18T15:13:20.138Z,0.40
2022-10-18T15:15:47.481Z,1.10
2022-10-18T15:18:21.175Z,0.65
2022-10-18T15:21:09.448Z,0.45
2022-10-18T15:23:36.750Z,0.63
2022-10-18T15:26:07.323Z,0.70
2022-10-18T15:28:39.571Z,0.57
2022-10-18T15:31:17.121Z,0.63
2022-10-18T15:33:44.603Z,0.77
2022-10-18T15:36:26.530Z,0.73
2022-10-18T15:38:53.875Z,1.02
2022-10-18T15:41:39.280Z,0.93
2022-10-18T15:44:13.133Z,0.80
2022-10-18T15:46:41.562Z,0.38
2022-10-18T15:49:56.899Z,0.82
2022-10-18T15:52:39.016Z,0.35
2022-10-18T15:55:55.784Z,0.35
2022-10-18T15:58:26.213Z,0.30
2022-10-18T16:00:56.212Z,0.60
2022-10-18T16:03:24.304Z,0.40
2022-10-18T16:05:56.243Z,0.30
2022-10-18T16:08:29.035Z,0.38
2022-10-18T16:10:56.761Z,0.52
2022-10-18T16:13:24.443Z,0.38
2022-10-18T16:15:52.129Z,0.57
2022-10-18T16:18:20.434Z,0.35
2022-10-18T16:20:48.751Z,0.30
2022-10-18T16:23:22.100Z,0.57
2022-10-18T16:25:51.788Z,0.40
2022-10-18T16:28:21.734Z,0.20
2022-10-18T16:30:54.925Z,0.50
2022-10-18T16:33:22.474Z,0.45
2022-10-18T16:35:50.189Z,0.40
2022-10-18T16:38:31.081Z,0.50
2022-10-18T16:41:04.099Z,0.50
2022-10-18T16:43:31.858Z,0.28
2022-10-18T16:45:59.481Z,0.57
2022-10-18T16:48:27.503Z,0.35
2022-10-18T16:50:56.742Z,0.52
2022-10-18T16:53:25.193Z,0.50
2022-10-18T16:55:54.662Z,0.50
2022-10-18T17:00:56.286Z,0.63
2022-10-18T17:03:23.693Z,0.60
2022-10-18T17:05:51.427Z,0.43
2022-10-18T17:08:21.182Z,0.60
2022-10-18T17:10:52.932Z,0.77
2022-10-18T17:13:20.992Z,0.60
2022-10-18T17:15:50.399Z,0.32
2022-10-18T17:18:20.866Z,0.40
2022-10-18T17:20:49.203Z,0.50
2022-10-18T17:23:16.761Z,0.70
2022-10-18T17:25:57.582Z,0.32
2022-10-18T17:28:32.615Z,0.45
2022-10-18T17:31:01.342Z,0.28
2022-10-18T17:33:28.601Z,0.60
2022-10-18T17:35:55.828Z,0.38
2022-10-18T17:38:23.408Z,0.40
2022-10-18T17:40:52.988Z,0.40
2022-10-18T17:43:20.354Z,0.70
2022-10-18T17:45:48.303Z,0.30
2022-10-18T17:48:18.837Z,0.45
2022-10-18T17:50:46.203Z,0.30
2022-10-18T17:53:13.471Z,0.30
2022-10-18T17:55:40.810Z,0.60
2022-10-18T17:58:08.252Z,2.35
2022-10-18T18:00:35.634Z,0.77
2022-10-18T18:03:03.096Z,0.45
2022-10-18T18:05:33.732Z,0.20
2022-10-18T18:08:04.001Z,0.47
2022-10-18T18:10:32.790Z,0.55
2022-10-18T18:13:00.371Z,0.30
2022-10-18T18:15:27.948Z,0.50
2022-10-18T18:17:57.349Z,0.52
2022-10-18T18:20:25.553Z,0.28
2022-10-18T18:22:54.267Z,0.15
2022-10-18T18:25:21.603Z,0.43
2022-10-18T18:27:48.870Z,0.45
2022-10-18T18:30:18.080Z,0.35
2022-10-18T18:32:45.581Z,0.30
2022-10-18T18:35:12.929Z,0.43
2022-10-18T18:37:40.238Z,0.25
2022-10-18T18:40:09.664Z,0.40
2022-10-18T18:42:37.107Z,0.30
2022-10-18T18:45:05.195Z,0.47
2022-10-18T18:47:35.543Z,0.10
2022-10-18T18:50:02.923Z,0.40
2022-10-18T18:52:30.974Z,0.20
2022-10-18T18:54:58.545Z,0.10
2022-10-18T18:57:27.394Z,0.30
2022-10-18T18:59:54.614Z,0.88
2022-10-18T19:02:21.961Z,0.30
2022-10-18T19:04:49.819Z,0.30
2022-10-18T19:07:17.028Z,0.22
2022-10-18T19:09:44.972Z,0.77
2022-10-18T19:12:12.189Z,0.30
2022-10-18T19:14:40.884Z,0.30
2022-10-18T19:17:08.135Z,0.10
2022-10-18T19:19:36.141Z,0.40
2022-10-18T19:22:09.744Z,0.10
2022-10-18T19:24:37.293Z,0.22
2022-10-18T19:27:06.143Z,0.20
2022-10-18T19:29:34.804Z,0.30
2022-10-18T19:32:05.983Z,0.20
2022-10-18T19:34:37.177Z,0.20
2022-10-18T19:37:04.725Z,0.30
2022-10-18T19:39:33.916Z,0.50
2022-10-18T19:42:04.157Z,0.47
2022-10-18T19:44:32.849Z,0.50
2022-10-18T19:47:00.744Z,0.65
2022-10-18T19:49:29.971Z,0.40
2022-10-18T19:51:57.599Z,0.50
2022-10-18T19:54:25.436Z,0.70
2022-10-18T19:56:52.910Z,0.70
2022-10-18T19:59:20.252Z,0.57
2022-10-18T20:01:47.718Z,0.32
2022-10-18T20:04:16.012Z,4.30
2022-10-18T20:06:44.938Z,0.68
2022-10-18T20:09:16.248Z,0.98
2022-10-18T20:11:46.975Z,0.63
2022-10-18T20:14:14.289Z,5.47
2022-10-18T20:16:41.668Z,0.50
2022-10-18T20:19:09.613Z,1.05
2022-10-18T20:21:36.974Z,0.43
2022-10-18T20:24:06.975Z,0.60
2022-10-18T20:26:35.976Z,0.80
2022-10-18T20:29:04.474Z,0.52
2022-10-18T20:31:35.687Z,0.60
2022-10-18T20:34:05.032Z,0.88
2022-10-18T20:36:33.251Z,0.82
2022-10-18T20:39:00.930Z,0.50
2022-10-18T20:41:30.925Z,0.82
2022-10-18T20:44:00.523Z,0.57
2022-10-18T20:46:30.825Z,0.60
2022-10-18T20:48:58.283Z,0.68
2022-10-18T20:51:25.865Z,0.80
2022-10-18T20:53:53.991Z,0.40
2022-10-18T20:56:22.978Z,0.60
2022-10-18T20:58:53.715Z,0.73
2022-10-18T21:01:23.166Z,0.50
2022-10-18T21:03:52.242Z,0.52
2022-10-18T21:06:21.726Z,0.52
2022-10-18T21:08:53.410Z,0.73
2022-10-18T21:11:20.644Z,0.40
2022-10-18T21:13:52.013Z,0.85
2022-10-18T21:16:19.437Z,0.30
2022-10-18T21:18:47.265Z,1.25
2022-10-18T21:21:15.841Z,0.38
2022-10-18T21:23:43.780Z,0.50
2022-10-18T21:26:14.676Z,0.50
2022-10-18T21:28:41.936Z,0.50
2022-10-18T21:31:13.427Z,0.50
2022-10-18T21:33:41.347Z,0.60
2022-10-18T21:36:09.149Z,0.80
2022-10-18T21:38:37.051Z,0.50
2022-10-18T21:41:08.754Z,0.82
2022-10-18T21:43:36.383Z,0.52
2022-10-18T21:46:03.728Z,0.50
2022-10-18T21:48:32.362Z,0.90
2022-10-18T21:51:03.181Z,0.30
2022-10-18T21:53:30.491Z,0.52
2022-10-18T21:56:04.659Z,0.77
2022-10-18T21:58:31.853Z,0.45
2022-10-18T22:00:59.319Z,0.38
2022-10-18T22:03:26.774Z,0.30
2022-10-18T22:06:01.413Z,0.40
2022-10-18T22:08:29.144Z,0.50
2022-10-18T22:10:58.021Z,0.47
2022-10-18T22:13:25.787Z,0.55
2022-10-18T22:15:53.174Z,0.30
2022-10-18T22:18:20.539Z,0.88
2022-10-18T22:20:54.544Z,0.43
2022-10-18T22:23:23.571Z,0.60
2022-10-18T22:25:50.819Z,0.40
2022-10-18T22:28:18.038Z,0.20
2022-10-18T22:30:45.299Z,0.40
2022-10-18T22:33:12.861Z,0.30
2022-10-18T22:35:40.244Z,0.40
2022-10-18T22:38:07.526Z,0.40
2022-10-18T22:40:36.185Z,0.60
2022-10-18T22:43:05.117Z,0.40
2022-10-18T22:45:32.383Z,0.40
2022-10-18T22:47:59.785Z,0.60
2022-10-18T22:50:27.028Z,0.57
2022-10-18T22:52:54.727Z,0.70
2022-10-18T22:55:22.932Z,0.45
2022-10-18T22:57:51.508Z,0.52
2022-10-18T23:00:18.991Z,0.70
2022-10-18T23:02:48.918Z,0.60
2022-10-18T23:05:16.685Z,0.40
2022-10-18T23:07:48.263Z,0.73
2022-10-18T23:10:16.221Z,0.82
2022-10-18T23:12:44.189Z,0.50
2022-10-18T23:15:12.869Z,0.50
2022-10-18T23:17:40.129Z,0.57
2022-10-18T23:20:08.354Z,0.40
2022-10-18T23:22:35.879Z,0.60
2022-10-18T23:25:03.658Z,0.70
2022-10-18T23:27:31.019Z,0.80
2022-10-18T23:29:58.260Z,0.77
2022-10-18T23:32:26.923Z,0.50
2022-10-18T23:34:54.507Z,0.82
2022-10-18T23:37:22.213Z,0.60
2022-10-18T23:39:49.701Z,0.70
2022-10-18T23:42:16.890Z,0.50
2022-10-18T23:44:44.292Z,0.63
2022-10-18T23:47:11.592Z,0.70
2022-10-18T23:49:40.172Z,0.80
2022-10-18T23:52:08.093Z,1.40
2022-10-18T23:54:35.725Z,0.93
2022-10-18T23:57:03.147Z,0.80
2022-10-18T23:59:31.180Z,0.80
